• Join FlightAware (Why Join?)
  • Login
  • US Flag 
12:37AM EDT


 

Airport Tracker/Info


-or-


 

Live Flight TrackerFlight Track Log ✈ KAP26 ✈ 17-Jun-2013 ✈ KSTL - KIRK

Flight Track Log - Related Links

Times and Time Zones

All times are in EDT time to prevent confusion due to time zone crossing. See the KAP26 flight status page for this flight to view local times or setup timezone preferences in your user account.

Time Position Orientation Groundspeed Altitude Reporting Facility
EDT Latitude Longitude Course Direction KTS MPH feet Rate Location/Type
07:12PM 38.7500 -90.3167 38° Northeast 137 158 1,500  Level Gateway (St. Louis) TRACON
07:12PM 38.7667 -90.3000 38° Northeast 137 158 2,200 720 Climbing Gateway (St. Louis) TRACON
07:13PM 38.8167 -90.3167 345° North 158 182 2,800 720 Climbing Gateway (St. Louis) TRACON
07:14PM 38.8500 -90.3500 322° Northwest 159 183 3,600 720 Climbing Gateway (St. Louis) TRACON
07:15PM 38.8531 -90.3542 313° West 161 185 3,700 420 Climbing Kansas City Center
07:16PM 38.8758 -90.4028 301° West 161 185 4,200 480 Climbing Kansas City Center
07:17PM 38.8997 -90.4436 307° West 154 177 4,800 540 Climbing Kansas City Center
07:18PM 38.9261 -90.4878 308° West 140 161 5,400 540 Climbing Kansas City Center
07:19PM 38.9467 -90.5233 307° West 129 148 6,000 240 Climbing Kansas City Center
07:20PM 38.9692 -90.5617 307° West 131 151 6,000  Level Kansas City Center
07:21PM 38.9953 -90.6089 305° West 155 178 6,000  Level Kansas City Center
07:22PM 39.0189 -90.6600 301° West 164 189 6,000  Level Kansas City Center
07:23PM 39.0511 -90.7047 313° West 169 194 6,000  Level Kansas City Center
07:24PM 39.0889 -90.7583 312° West 168 193 6,000  Level Kansas City Center
07:25PM 39.1186 -90.8033 310° West 168 193 6,000  Level Kansas City Center
07:26PM 39.1489 -90.8514 309° West 170 196 6,000  Level Kansas City Center
07:27PM 39.1769 -90.9011 306° West 172 198 6,000  Level Kansas City Center
07:28PM 39.2047 -90.9506 306° West 172 198 6,000  Level Kansas City Center
07:29PM 39.2333 -91.0011 306° West 173 199 6,000  Level Kansas City Center
07:30PM 39.2686 -91.0622 307° West 175 201 6,000  Level Kansas City Center
07:31PM 39.2969 -91.1119 306° West 175 201 6,000  Level Kansas City Center
07:32PM 39.3256 -91.1625 306° West 174 200 6,000  Level Kansas City Center
07:33PM 39.3525 -91.2125 305° West 171 197 6,000  Level Kansas City Center
07:34PM 39.3803 -91.2617 306° West 169 194 6,000  Level Kansas City Center
07:35PM 39.4083 -91.3089 308° West 168 193 6,000  Level Kansas City Center
07:36PM 39.4414 -91.3664 307° West 167 192 6,000  Level Kansas City Center
07:37PM 39.4683 -91.4150 306° West 166 191 6,000  Level Kansas City Center
07:38PM 39.4942 -91.4639 304° West 165 190 6,000  Level Kansas City Center
07:39PM 39.5194 -91.5092 306° West 165 190 6,000  Level Kansas City Center
07:40PM 39.5508 -91.5681 305° West 166 191 6,000  Level Kansas City Center
07:42PM 39.5783 -91.6147 307° West 165 190 6,000  Level Kansas City Center
07:43PM 39.6069 -91.6603 309° West 164 189 6,000  Level Kansas City Center
07:44PM 39.6319 -91.7100 303° West 166 191 6,000  Level Kansas City Center
07:45PM 39.6600 -91.7572 308° West 166 191 6,000  Level Kansas City Center
07:46PM 39.6914 -91.8147 305° West 164 189 6,000  Level Kansas City Center
07:47PM 39.7175 -91.8625 305° West 164 189 6,000  Level Kansas City Center
07:48PM 39.7436 -91.9100 306° West 164 189 6,000  Level Kansas City Center
07:49PM 39.7700 -91.9564 307° West 162 186 6,000  Level Kansas City Center
07:50PM 39.7958 -92.0039 305° West 162 186 6,000 -60 Level Kansas City Center
07:51PM 39.8281 -92.0586 307° West 161 185 5,900 -300 Descending Kansas City Center
07:52PM 39.8556 -92.1094 305° West 170 196 5,400 -540 Descending Kansas City Center
07:53PM 39.8858 -92.1639 306° West 180 207 4,900 -540 Descending Kansas City Center
07:54PM 39.9150 -92.2181 305° West 183 211 4,400 -540 Descending Kansas City Center